sensor_id;sensor_type;location;lat;lon;timestamp;P1;durP1;ratioP1;P2;durP2;ratioP2
83840;SDS011;73868;52.172;10.668;2023-12-20T00:00:05;5.83;;;5.33;;
83840;SDS011;73868;52.172;10.668;2023-12-20T00:02:31;6.40;;;5.80;;
83840;SDS011;73868;52.172;10.668;2023-12-20T00:04:56;6.23;;;5.73;;
83840;SDS011;73868;52.172;10.668;2023-12-20T00:07:22;7.07;;;6.37;;
83840;SDS011;73868;52.172;10.668;2023-12-20T00:09:48;6.60;;;6.00;;
83840;SDS011;73868;52.172;10.668;2023-12-20T00:12:14;6.50;;;5.90;;
83840;SDS011;73868;52.172;10.668;2023-12-20T00:14:39;6.50;;;5.90;;
83840;SDS011;73868;52.172;10.668;2023-12-20T00:17:05;6.40;;;5.70;;
83840;SDS011;73868;52.172;10.668;2023-12-20T00:19:31;7.30;;;6.60;;
83840;SDS011;73868;52.172;10.668;2023-12-20T00:21:56;7.60;;;6.90;;
83840;SDS011;73868;52.172;10.668;2023-12-20T00:24:22;6.80;;;6.20;;
83840;SDS011;73868;52.172;10.668;2023-12-20T00:26:48;7.13;;;6.53;;
83840;SDS011;73868;52.172;10.668;2023-12-20T00:29:14;6.30;;;5.70;;
83840;SDS011;73868;52.172;10.668;2023-12-20T00:31:39;7.17;;;6.57;;
83840;SDS011;73868;52.172;10.668;2023-12-20T00:34:05;7.33;;;6.67;;
83840;SDS011;73868;52.172;10.668;2023-12-20T00:36:30;6.80;;;6.20;;
83840;SDS011;73868;52.172;10.668;2023-12-20T00:38:56;6.63;;;6.03;;
83840;SDS011;73868;52.172;10.668;2023-12-20T00:41:22;7.50;;;6.80;;
83840;SDS011;73868;52.172;10.668;2023-12-20T00:43:47;7.37;;;6.67;;
83840;SDS011;73868;52.172;10.668;2023-12-20T00:46:13;6.63;;;6.03;;
83840;SDS011;73868;52.172;10.668;2023-12-20T00:48:39;6.50;;;5.90;;
83840;SDS011;73868;52.172;10.668;2023-12-20T00:51:07;7.20;;;6.50;;
83840;SDS011;73868;52.172;10.668;2023-12-20T00:53:33;6.13;;;5.53;;
83840;SDS011;73868;52.172;10.668;2023-12-20T00:55:58;6.27;;;5.67;;
83840;SDS011;73868;52.172;10.668;2023-12-20T00:58:24;5.20;;;4.70;;
83840;SDS011;73868;52.172;10.668;2023-12-20T01:00:49;6.57;;;5.97;;
83840;SDS011;73868;52.172;10.668;2023-12-20T01:03:15;6.83;;;5.60;;
83840;SDS011;73868;52.172;10.668;2023-12-20T01:05:40;6.67;;;6.07;;
83840;SDS011;73868;52.172;10.668;2023-12-20T01:08:06;7.03;;;6.33;;
83840;SDS011;73868;52.172;10.668;2023-12-20T01:10:31;6.53;;;5.93;;
83840;SDS011;73868;52.172;10.668;2023-12-20T01:12:57;6.60;;;6.00;;
83840;SDS011;73868;52.172;10.668;2023-12-20T01:15:23;7.47;;;6.80;;
83840;SDS011;73868;52.172;10.668;2023-12-20T01:17:48;6.77;;;6.17;;
83840;SDS011;73868;52.172;10.668;2023-12-20T01:20:14;6.60;;;6.00;;
83840;SDS011;73868;52.172;10.668;2023-12-20T01:22:40;7.17;;;6.47;;
83840;SDS011;73868;52.172;10.668;2023-12-20T01:25:07;6.57;;;5.97;;
83840;SDS011;73868;52.172;10.668;2023-12-20T01:27:33;7.37;;;6.67;;
83840;SDS011;73868;52.172;10.668;2023-12-20T01:29:58;7.07;;;6.47;;
83840;SDS011;73868;52.172;10.668;2023-12-20T01:32:24;6.90;;;6.30;;
83840;SDS011;73868;52.172;10.668;2023-12-20T01:34:50;6.50;;;5.90;;
83840;SDS011;73868;52.172;10.668;2023-12-20T01:37:15;6.37;;;5.67;;
83840;SDS011;73868;52.172;10.668;2023-12-20T01:39:41;7.40;;;6.70;;
83840;SDS011;73868;52.172;10.668;2023-12-20T01:42:06;7.73;;;6.93;;
83840;SDS011;73868;52.172;10.668;2023-12-20T01:44:32;8.33;;;6.00;;
83840;SDS011;73868;52.172;10.668;2023-12-20T01:46:57;8.63;;;6.90;;
83840;SDS011;73868;52.172;10.668;2023-12-20T01:49:23;8.70;;;6.37;;
83840;SDS011;73868;52.172;10.668;2023-12-20T01:51:49;7.13;;;6.03;;
83840;SDS011;73868;52.172;10.668;2023-12-20T01:54:15;8.17;;;6.20;;
83840;SDS011;73868;52.172;10.668;2023-12-20T01:56:42;8.57;;;6.10;;
83840;SDS011;73868;52.172;10.668;2023-12-20T01:59:08;7.27;;;5.73;;
83840;SDS011;73868;52.172;10.668;2023-12-20T02:01:34;7.03;;;5.43;;
83840;SDS011;73868;52.172;10.668;2023-12-20T02:04:00;7.23;;;5.13;;
83840;SDS011;73868;52.172;10.668;2023-12-20T02:06:28;10.50;;;6.00;;
83840;SDS011;73868;52.172;10.668;2023-12-20T02:08:56;9.33;;;6.00;;
83840;SDS011;73868;52.172;10.668;2023-12-20T02:11:23;6.80;;;5.30;;
83840;SDS011;73868;52.172;10.668;2023-12-20T02:13:50;6.07;;;5.00;;
83840;SDS011;73868;52.172;10.668;2023-12-20T02:16:15;7.20;;;4.90;;
83840;SDS011;73868;52.172;10.668;2023-12-20T02:18:42;7.00;;;5.37;;
83840;SDS011;73868;52.172;10.668;2023-12-20T02:21:09;8.33;;;5.43;;
83840;SDS011;73868;52.172;10.668;2023-12-20T02:23:35;7.17;;;4.90;;
83840;SDS011;73868;52.172;10.668;2023-12-20T02:26:00;5.00;;;4.50;;
83840;SDS011;73868;52.172;10.668;2023-12-20T02:28:26;8.80;;;5.00;;
83840;SDS011;73868;52.172;10.668;2023-12-20T02:30:52;9.30;;;4.70;;
83840;SDS011;73868;52.172;10.668;2023-12-20T02:33:18;8.90;;;5.10;;
83840;SDS011;73868;52.172;10.668;2023-12-20T02:35:43;6.63;;;4.70;;
83840;SDS011;73868;52.172;10.668;2023-12-20T02:38:09;9.10;;;4.17;;
83840;SDS011;73868;52.172;10.668;2023-12-20T02:40:34;12.07;;;4.93;;
83840;SDS011;73868;52.172;10.668;2023-12-20T02:43:00;5.20;;;3.60;;
83840;SDS011;73868;52.172;10.668;2023-12-20T02:45:26;10.00;;;3.40;;
83840;SDS011;73868;52.172;10.668;2023-12-20T02:47:52;10.10;;;3.67;;
83840;SDS011;73868;52.172;10.668;2023-12-20T02:50:17;6.43;;;2.83;;
83840;SDS011;73868;52.172;10.668;2023-12-20T02:52:44;6.87;;;3.07;;
83840;SDS011;73868;52.172;10.668;2023-12-20T02:55:10;7.00;;;3.40;;
83840;SDS011;73868;52.172;10.668;2023-12-20T02:57:36;7.93;;;2.83;;
83840;SDS011;73868;52.172;10.668;2023-12-20T03:00:06;8.37;;;2.90;;
83840;SDS011;73868;52.172;10.668;2023-12-20T03:02:35;4.87;;;2.83;;
83840;SDS011;73868;52.172;10.668;2023-12-20T03:05:01;9.70;;;2.70;;
83840;SDS011;73868;52.172;10.668;2023-12-20T03:07:27;9.93;;;3.13;;
83840;SDS011;73868;52.172;10.668;2023-12-20T03:09:53;8.60;;;2.60;;
83840;SDS011;73868;52.172;10.668;2023-12-20T03:12:19;6.43;;;2.53;;
83840;SDS011;73868;52.172;10.668;2023-12-20T03:14:44;7.87;;;2.70;;
83840;SDS011;73868;52.172;10.668;2023-12-20T03:17:10;7.30;;;2.70;;
83840;SDS011;73868;52.172;10.668;2023-12-20T03:19:35;10.83;;;3.00;;
83840;SDS011;73868;52.172;10.668;2023-12-20T03:22:01;8.47;;;2.47;;
83840;SDS011;73868;52.172;10.668;2023-12-20T03:24:27;6.93;;;2.63;;
83840;SDS011;73868;52.172;10.668;2023-12-20T03:26:53;6.43;;;2.03;;
83840;SDS011;73868;52.172;10.668;2023-12-20T03:29:18;4.33;;;2.07;;
83840;SDS011;73868;52.172;10.668;2023-12-20T03:31:44;7.37;;;2.13;;
83840;SDS011;73868;52.172;10.668;2023-12-20T03:34:10;12.40;;;3.17;;
83840;SDS011;73868;52.172;10.668;2023-12-20T03:36:36;6.40;;;2.30;;
83840;SDS011;73868;52.172;10.668;2023-12-20T03:39:01;5.40;;;2.07;;
83840;SDS011;73868;52.172;10.668;2023-12-20T03:41:27;5.43;;;2.20;;
83840;SDS011;73868;52.172;10.668;2023-12-20T03:43:53;6.63;;;2.23;;
83840;SDS011;73868;52.172;10.668;2023-12-20T03:46:19;6.30;;;1.90;;
83840;SDS011;73868;52.172;10.668;2023-12-20T03:48:44;6.73;;;2.20;;
83840;SDS011;73868;52.172;10.668;2023-12-20T03:51:10;8.57;;;1.90;;
83840;SDS011;73868;52.172;10.668;2023-12-20T03:53:35;7.07;;;1.73;;
83840;SDS011;73868;52.172;10.668;2023-12-20T03:56:01;6.90;;;1.87;;
83840;SDS011;73868;52.172;10.668;2023-12-20T03:58:26;5.03;;;1.63;;
83840;SDS011;73868;52.172;10.668;2023-12-20T04:00:52;4.03;;;2.00;;
83840;SDS011;73868;52.172;10.668;2023-12-20T04:03:17;6.80;;;2.10;;
83840;SDS011;73868;52.172;10.668;2023-12-20T04:05:43;8.67;;;2.93;;
83840;SDS011;73868;52.172;10.668;2023-12-20T04:08:09;7.77;;;3.20;;
83840;SDS011;73868;52.172;10.668;2023-12-20T04:10:34;13.17;;;3.80;;
83840;SDS011;73868;52.172;10.668;2023-12-20T04:13:00;10.43;;;3.33;;
83840;SDS011;73868;52.172;10.668;2023-12-20T04:15:26;9.47;;;2.30;;
83840;SDS011;73868;52.172;10.668;2023-12-20T04:17:51;8.57;;;2.70;;
83840;SDS011;73868;52.172;10.668;2023-12-20T04:20:17;7.53;;;2.17;;
83840;SDS011;73868;52.172;10.668;2023-12-20T04:22:42;6.53;;;2.20;;
83840;SDS011;73868;52.172;10.668;2023-12-20T04:25:08;8.20;;;2.23;;
83840;SDS011;73868;52.172;10.668;2023-12-20T04:27:34;4.60;;;1.80;;
83840;SDS011;73868;52.172;10.668;2023-12-20T04:30:00;6.43;;;2.13;;
83840;SDS011;73868;52.172;10.668;2023-12-20T04:32:25;5.10;;;1.80;;
83840;SDS011;73868;52.172;10.668;2023-12-20T04:34:51;3.30;;;1.77;;
83840;SDS011;73868;52.172;10.668;2023-12-20T04:37:16;4.17;;;1.70;;
83840;SDS011;73868;52.172;10.668;2023-12-20T04:39:42;6.03;;;1.63;;
83840;SDS011;73868;52.172;10.668;2023-12-20T04:42:08;6.33;;;1.47;;
83840;SDS011;73868;52.172;10.668;2023-12-20T04:44:33;5.00;;;1.53;;
83840;SDS011;73868;52.172;10.668;2023-12-20T04:46:59;6.10;;;1.43;;
83840;SDS011;73868;52.172;10.668;2023-12-20T04:49:25;3.80;;;1.40;;
83840;SDS011;73868;52.172;10.668;2023-12-20T04:51:50;5.67;;;1.33;;
83840;SDS011;73868;52.172;10.668;2023-12-20T04:54:16;5.77;;;2.13;;
83840;SDS011;73868;52.172;10.668;2023-12-20T04:56:41;4.90;;;1.47;;
83840;SDS011;73868;52.172;10.668;2023-12-20T04:59:07;3.83;;;1.20;;
83840;SDS011;73868;52.172;10.668;2023-12-20T05:01:32;3.07;;;1.37;;
83840;SDS011;73868;52.172;10.668;2023-12-20T05:03:58;5.67;;;1.57;;
83840;SDS011;73868;52.172;10.668;2023-12-20T05:06:24;2.40;;;1.27;;
83840;SDS011;73868;52.172;10.668;2023-12-20T05:08:49;5.57;;;1.40;;
83840;SDS011;73868;52.172;10.668;2023-12-20T05:11:15;5.43;;;1.60;;
83840;SDS011;73868;52.172;10.668;2023-12-20T05:13:41;4.27;;;1.30;;
83840;SDS011;73868;52.172;10.668;2023-12-20T05:16:07;5.93;;;1.60;;
83840;SDS011;73868;52.172;10.668;2023-12-20T05:18:33;3.43;;;1.50;;
83840;SDS011;73868;52.172;10.668;2023-12-20T05:20:59;4.37;;;1.43;;
83840;SDS011;73868;52.172;10.668;2023-12-20T05:23:25;5.80;;;1.60;;
83840;SDS011;73868;52.172;10.668;2023-12-20T05:25:50;3.30;;;1.17;;
83840;SDS011;73868;52.172;10.668;2023-12-20T05:28:16;5.03;;;1.20;;
83840;SDS011;73868;52.172;10.668;2023-12-20T05:30:42;7.70;;;1.80;;
83840;SDS011;73868;52.172;10.668;2023-12-20T05:33:08;6.87;;;1.40;;
83840;SDS011;73868;52.172;10.668;2023-12-20T05:35:34;3.30;;;0.90;;
83840;SDS011;73868;52.172;10.668;2023-12-20T05:38:00;3.87;;;1.47;;
83840;SDS011;73868;52.172;10.668;2023-12-20T05:40:25;6.10;;;1.47;;
83840;SDS011;73868;52.172;10.668;2023-12-20T05:42:51;3.77;;;1.40;;
83840;SDS011;73868;52.172;10.668;2023-12-20T05:45:16;6.50;;;1.63;;
83840;SDS011;73868;52.172;10.668;2023-12-20T05:47:42;6.43;;;1.67;;
83840;SDS011;73868;52.172;10.668;2023-12-20T05:50:07;4.53;;;1.60;;
83840;SDS011;73868;52.172;10.668;2023-12-20T05:52:34;6.73;;;2.13;;
83840;SDS011;73868;52.172;10.668;2023-12-20T05:54:59;8.47;;;1.70;;
83840;SDS011;73868;52.172;10.668;2023-12-20T05:57:26;6.57;;;1.83;;
83840;SDS011;73868;52.172;10.668;2023-12-20T05:59:52;5.13;;;1.90;;
83840;SDS011;73868;52.172;10.668;2023-12-20T06:02:17;4.70;;;1.40;;
83840;SDS011;73868;52.172;10.668;2023-12-20T06:04:43;4.17;;;1.43;;
83840;SDS011;73868;52.172;10.668;2023-12-20T06:07:11;6.03;;;1.97;;
83840;SDS011;73868;52.172;10.668;2023-12-20T06:09:37;5.67;;;1.93;;
83840;SDS011;73868;52.172;10.668;2023-12-20T06:12:02;4.73;;;1.97;;
83840;SDS011;73868;52.172;10.668;2023-12-20T06:14:28;6.27;;;1.73;;
83840;SDS011;73868;52.172;10.668;2023-12-20T06:16:55;6.20;;;2.67;;
83840;SDS011;73868;52.172;10.668;2023-12-20T06:19:21;7.20;;;1.90;;
83840;SDS011;73868;52.172;10.668;2023-12-20T06:21:47;4.43;;;1.63;;
83840;SDS011;73868;52.172;10.668;2023-12-20T06:24:12;5.33;;;1.60;;
83840;SDS011;73868;52.172;10.668;2023-12-20T06:26:38;3.67;;;1.60;;
83840;SDS011;73868;52.172;10.668;2023-12-20T06:29:03;6.87;;;1.70;;
83840;SDS011;73868;52.172;10.668;2023-12-20T06:31:29;9.17;;;2.30;;
83840;SDS011;73868;52.172;10.668;2023-12-20T06:33:54;5.50;;;1.77;;
83840;SDS011;73868;52.172;10.668;2023-12-20T06:36:23;7.40;;;2.00;;
83840;SDS011;73868;52.172;10.668;2023-12-20T06:38:49;9.03;;;2.50;;
83840;SDS011;73868;52.172;10.668;2023-12-20T06:41:15;7.57;;;2.43;;
83840;SDS011;73868;52.172;10.668;2023-12-20T06:43:41;8.43;;;2.40;;
83840;SDS011;73868;52.172;10.668;2023-12-20T06:46:07;7.13;;;2.47;;
83840;SDS011;73868;52.172;10.668;2023-12-20T06:48:33;8.43;;;2.40;;
83840;SDS011;73868;52.172;10.668;2023-12-20T06:50:59;6.47;;;1.90;;
83840;SDS011;73868;52.172;10.668;2023-12-20T06:53:27;6.80;;;2.57;;
83840;SDS011;73868;52.172;10.668;2023-12-20T06:55:52;7.73;;;2.80;;
83840;SDS011;73868;52.172;10.668;2023-12-20T06:58:18;9.35;;;4.30;;
83840;SDS011;73868;52.172;10.668;2023-12-20T07:00:43;8.40;;;3.03;;
83840;SDS011;73868;52.172;10.668;2023-12-20T07:03:09;8.33;;;3.27;;
83840;SDS011;73868;52.172;10.668;2023-12-20T07:05:35;8.63;;;2.87;;
83840;SDS011;73868;52.172;10.668;2023-12-20T07:08:00;7.20;;;2.77;;
83840;SDS011;73868;52.172;10.668;2023-12-20T07:10:26;10.27;;;3.80;;
83840;SDS011;73868;52.172;10.668;2023-12-20T07:12:51;8.70;;;3.23;;
83840;SDS011;73868;52.172;10.668;2023-12-20T07:15:20;10.83;;;4.10;;
83840;SDS011;73868;52.172;10.668;2023-12-20T07:17:46;9.97;;;3.67;;
83840;SDS011;73868;52.172;10.668;2023-12-20T07:20:11;6.33;;;3.17;;
83840;SDS011;73868;52.172;10.668;2023-12-20T07:22:37;7.33;;;3.40;;
83840;SDS011;73868;52.172;10.668;2023-12-20T07:25:03;9.63;;;4.10;;
83840;SDS011;73868;52.172;10.668;2023-12-20T07:27:29;9.97;;;3.17;;
83840;SDS011;73868;52.172;10.668;2023-12-20T07:29:54;13.87;;;4.10;;
83840;SDS011;73868;52.172;10.668;2023-12-20T07:32:20;12.57;;;4.30;;
83840;SDS011;73868;52.172;10.668;2023-12-20T07:34:45;9.73;;;3.27;;
83840;SDS011;73868;52.172;10.668;2023-12-20T07:37:11;8.67;;;2.80;;
83840;SDS011;73868;52.172;10.668;2023-12-20T07:39:40;7.73;;;3.27;;
83840;SDS011;73868;52.172;10.668;2023-12-20T07:42:06;7.00;;;3.17;;
83840;SDS011;73868;52.172;10.668;2023-12-20T07:44:33;12.40;;;3.60;;
83840;SDS011;73868;52.172;10.668;2023-12-20T07:46:58;6.73;;;2.87;;
83840;SDS011;73868;52.172;10.668;2023-12-20T07:49:24;9.77;;;2.93;;
83840;SDS011;73868;52.172;10.668;2023-12-20T07:51:50;8.87;;;2.67;;
83840;SDS011;73868;52.172;10.668;2023-12-20T07:54:15;7.63;;;3.23;;
83840;SDS011;73868;52.172;10.668;2023-12-20T07:56:41;10.37;;;2.90;;
83840;SDS011;73868;52.172;10.668;2023-12-20T07:59:07;8.60;;;2.60;;
83840;SDS011;73868;52.172;10.668;2023-12-20T08:01:32;10.43;;;3.10;;
83840;SDS011;73868;52.172;10.668;2023-12-20T08:03:58;12.77;;;3.17;;
83840;SDS011;73868;52.172;10.668;2023-12-20T08:06:23;5.97;;;2.77;;
83840;SDS011;73868;52.172;10.668;2023-12-20T08:08:49;9.57;;;3.43;;
83840;SDS011;73868;52.172;10.668;2023-12-20T08:11:15;6.83;;;2.53;;
83840;SDS011;73868;52.172;10.668;2023-12-20T08:13:40;10.47;;;2.70;;
83840;SDS011;73868;52.172;10.668;2023-12-20T08:16:06;8.97;;;3.03;;
83840;SDS011;73868;52.172;10.668;2023-12-20T08:18:31;10.57;;;3.20;;
83840;SDS011;73868;52.172;10.668;2023-12-20T08:20:57;5.83;;;2.30;;
83840;SDS011;73868;52.172;10.668;2023-12-20T08:23:22;10.07;;;2.70;;
83840;SDS011;73868;52.172;10.668;2023-12-20T08:25:48;8.00;;;2.50;;
83840;SDS011;73868;52.172;10.668;2023-12-20T08:28:14;6.57;;;2.37;;
83840;SDS011;73868;52.172;10.668;2023-12-20T08:30:40;6.57;;;2.30;;
83840;SDS011;73868;52.172;10.668;2023-12-20T08:33:06;6.67;;;2.57;;
83840;SDS011;73868;52.172;10.668;2023-12-20T08:35:36;9.73;;;2.30;;
83840;SDS011;73868;52.172;10.668;2023-12-20T08:38:02;8.37;;;2.20;;
83840;SDS011;73868;52.172;10.668;2023-12-20T08:40:29;5.93;;;1.80;;
83840;SDS011;73868;52.172;10.668;2023-12-20T08:42:54;7.63;;;2.20;;
83840;SDS011;73868;52.172;10.668;2023-12-20T08:45:20;7.60;;;2.30;;
83840;SDS011;73868;52.172;10.668;2023-12-20T08:47:46;8.50;;;2.60;;
83840;SDS011;73868;52.172;10.668;2023-12-20T08:50:11;5.67;;;1.83;;
83840;SDS011;73868;52.172;10.668;2023-12-20T08:52:37;9.23;;;1.90;;
83840;SDS011;73868;52.172;10.668;2023-12-20T08:55:03;7.27;;;1.73;;
83840;SDS011;73868;52.172;10.668;2023-12-20T08:57:28;6.30;;;2.57;;
83840;SDS011;73868;52.172;10.668;2023-12-20T08:59:54;6.50;;;2.13;;
83840;SDS011;73868;52.172;10.668;2023-12-20T09:02:20;6.27;;;2.17;;
83840;SDS011;73868;52.172;10.668;2023-12-20T09:04:45;7.43;;;2.20;;
83840;SDS011;73868;52.172;10.668;2023-12-20T09:10:06;7.67;;;2.07;;
83840;SDS011;73868;52.172;10.668;2023-12-20T09:12:32;6.70;;;2.27;;
83840;SDS011;73868;52.172;10.668;2023-12-20T09:14:57;7.23;;;2.23;;
83840;SDS011;73868;52.172;10.668;2023-12-20T09:17:23;7.73;;;2.23;;
83840;SDS011;73868;52.172;10.668;2023-12-20T09:19:48;8.50;;;2.00;;
83840;SDS011;73868;52.172;10.668;2023-12-20T09:22:14;6.70;;;2.30;;
83840;SDS011;73868;52.172;10.668;2023-12-20T09:24:40;5.63;;;2.07;;
83840;SDS011;73868;52.172;10.668;2023-12-20T09:27:06;7.60;;;2.47;;
83840;SDS011;73868;52.172;10.668;2023-12-20T09:29:31;8.57;;;2.10;;
83840;SDS011;73868;52.172;10.668;2023-12-20T09:31:57;5.97;;;1.73;;
83840;SDS011;73868;52.172;10.668;2023-12-20T09:34:23;10.13;;;2.53;;
83840;SDS011;73868;52.172;10.668;2023-12-20T09:36:49;10.87;;;2.93;;
83840;SDS011;73868;52.172;10.668;2023-12-20T09:39:15;8.40;;;2.57;;
83840;SDS011;73868;52.172;10.668;2023-12-20T09:41:44;9.33;;;2.70;;
83840;SDS011;73868;52.172;10.668;2023-12-20T09:44:15;6.57;;;2.80;;
83840;SDS011;73868;52.172;10.668;2023-12-20T09:46:43;10.30;;;2.50;;
83840;SDS011;73868;52.172;10.668;2023-12-20T09:49:11;7.10;;;2.27;;
83840;SDS011;73868;52.172;10.668;2023-12-20T09:51:38;7.30;;;2.70;;
83840;SDS011;73868;52.172;10.668;2023-12-20T09:54:05;9.60;;;2.60;;
83840;SDS011;73868;52.172;10.668;2023-12-20T09:56:31;6.20;;;2.23;;
83840;SDS011;73868;52.172;10.668;2023-12-20T09:58:57;6.50;;;2.70;;
83840;SDS011;73868;52.172;10.668;2023-12-20T10:01:23;5.70;;;2.60;;
83840;SDS011;73868;52.172;10.668;2023-12-20T10:03:50;11.63;;;2.57;;
83840;SDS011;73868;52.172;10.668;2023-12-20T10:06:17;6.40;;;2.30;;
83840;SDS011;73868;52.172;10.668;2023-12-20T10:08:43;9.80;;;3.23;;
83840;SDS011;73868;52.172;10.668;2023-12-20T10:11:09;9.03;;;3.00;;
83840;SDS011;73868;52.172;10.668;2023-12-20T10:13:34;5.40;;;2.53;;
83840;SDS011;73868;52.172;10.668;2023-12-20T10:16:05;7.03;;;2.10;;
83840;SDS011;73868;52.172;10.668;2023-12-20T10:18:32;7.30;;;3.13;;
83840;SDS011;73868;52.172;10.668;2023-12-20T10:20:58;4.73;;;3.10;;
83840;SDS011;73868;52.172;10.668;2023-12-20T10:23:23;8.93;;;2.63;;
83840;SDS011;73868;52.172;10.668;2023-12-20T10:25:55;8.43;;;3.43;;
83840;SDS011;73868;52.172;10.668;2023-12-20T10:28:24;10.40;;;3.03;;
83840;SDS011;73868;52.172;10.668;2023-12-20T10:30:53;7.47;;;3.13;;
83840;SDS011;73868;52.172;10.668;2023-12-20T10:33:25;7.40;;;2.80;;
83840;SDS011;73868;52.172;10.668;2023-12-20T10:35:52;6.33;;;2.70;;
83840;SDS011;73868;52.172;10.668;2023-12-20T10:38:18;6.33;;;2.83;;
83840;SDS011;73868;52.172;10.668;2023-12-20T10:40:45;8.83;;;3.20;;
83840;SDS011;73868;52.172;10.668;2023-12-20T10:43:11;6.87;;;2.80;;
83840;SDS011;73868;52.172;10.668;2023-12-20T10:45:36;7.60;;;3.07;;
83840;SDS011;73868;52.172;10.668;2023-12-20T10:48:02;9.27;;;3.77;;
83840;SDS011;73868;52.172;10.668;2023-12-20T10:50:28;7.77;;;3.87;;
83840;SDS011;73868;52.172;10.668;2023-12-20T10:52:56;8.10;;;3.60;;
83840;SDS011;73868;52.172;10.668;2023-12-20T10:55:22;7.10;;;3.33;;
83840;SDS011;73868;52.172;10.668;2023-12-20T10:57:52;9.23;;;3.27;;
83840;SDS011;73868;52.172;10.668;2023-12-20T11:00:25;6.93;;;3.20;;
83840;SDS011;73868;52.172;10.668;2023-12-20T11:02:51;7.40;;;3.40;;
83840;SDS011;73868;52.172;10.668;2023-12-20T11:08:07;6.30;;;2.63;;
83840;SDS011;73868;52.172;10.668;2023-12-20T11:14:00;6.13;;;3.37;;
83840;SDS011;73868;52.172;10.668;2023-12-20T11:16:22;12.27;;;3.50;;
83840;SDS011;73868;52.172;10.668;2023-12-20T11:18:47;5.70;;;3.07;;
83840;SDS011;73868;52.172;10.668;2023-12-20T11:21:16;8.70;;;3.10;;
83840;SDS011;73868;52.172;10.668;2023-12-20T11:23:41;6.50;;;3.20;;
83840;SDS011;73868;52.172;10.668;2023-12-20T11:26:07;10.33;;;3.50;;
83840;SDS011;73868;52.172;10.668;2023-12-20T11:28:33;4.90;;;2.70;;
83840;SDS011;73868;52.172;10.668;2023-12-20T11:31:00;7.27;;;3.30;;
83840;SDS011;73868;52.172;10.668;2023-12-20T11:33:31;10.10;;;3.73;;
83840;SDS011;73868;52.172;10.668;2023-12-20T11:36:12;6.93;;;3.67;;
83840;SDS011;73868;52.172;10.668;2023-12-20T11:38:49;7.77;;;3.00;;
83840;SDS011;73868;52.172;10.668;2023-12-20T11:41:22;7.57;;;3.33;;
83840;SDS011;73868;52.172;10.668;2023-12-20T11:43:53;6.50;;;3.17;;
83840;SDS011;73868;52.172;10.668;2023-12-20T11:46:20;9.93;;;3.63;;
83840;SDS011;73868;52.172;10.668;2023-12-20T11:48:46;7.63;;;3.47;;
83840;SDS011;73868;52.172;10.668;2023-12-20T11:51:12;10.73;;;3.73;;
83840;SDS011;73868;52.172;10.668;2023-12-20T11:53:39;10.53;;;3.53;;
83840;SDS011;73868;52.172;10.668;2023-12-20T11:56:06;6.57;;;3.30;;
83840;SDS011;73868;52.172;10.668;2023-12-20T11:58:32;8.53;;;3.30;;
83840;SDS011;73868;52.172;10.668;2023-12-20T12:00:58;7.20;;;3.53;;
83840;SDS011;73868;52.172;10.668;2023-12-20T12:03:24;8.40;;;3.70;;
83840;SDS011;73868;52.172;10.668;2023-12-20T12:05:50;5.63;;;3.30;;
83840;SDS011;73868;52.172;10.668;2023-12-20T12:08:16;5.57;;;3.10;;
83840;SDS011;73868;52.172;10.668;2023-12-20T12:10:42;8.33;;;3.60;;
83840;SDS011;73868;52.172;10.668;2023-12-20T12:13:11;7.63;;;4.00;;
83840;SDS011;73868;52.172;10.668;2023-12-20T12:15:36;6.73;;;3.20;;
83840;SDS011;73868;52.172;10.668;2023-12-20T12:18:02;6.47;;;3.87;;
83840;SDS011;73868;52.172;10.668;2023-12-20T12:20:29;6.47;;;3.30;;
83840;SDS011;73868;52.172;10.668;2023-12-20T12:22:58;6.70;;;3.50;;
83840;SDS011;73868;52.172;10.668;2023-12-20T12:25:31;7.77;;;3.67;;
83840;SDS011;73868;52.172;10.668;2023-12-20T12:27:58;8.67;;;3.80;;
83840;SDS011;73868;52.172;10.668;2023-12-20T12:30:24;7.63;;;3.90;;
83840;SDS011;73868;52.172;10.668;2023-12-20T12:32:53;6.50;;;3.57;;
83840;SDS011;73868;52.172;10.668;2023-12-20T12:35:21;8.67;;;4.40;;
83840;SDS011;73868;52.172;10.668;2023-12-20T12:37:47;7.73;;;4.17;;
83840;SDS011;73868;52.172;10.668;2023-12-20T12:40:16;7.87;;;3.27;;
83840;SDS011;73868;52.172;10.668;2023-12-20T12:42:42;5.67;;;3.03;;
83840;SDS011;73868;52.172;10.668;2023-12-20T12:45:09;5.67;;;2.70;;
83840;SDS011;73868;52.172;10.668;2023-12-20T12:47:39;2.67;;;2.13;;
83840;SDS011;73868;52.172;10.668;2023-12-20T12:50:05;5.47;;;1.90;;
83840;SDS011;73868;52.172;10.668;2023-12-20T12:52:31;6.80;;;2.37;;
83840;SDS011;73868;52.172;10.668;2023-12-20T12:54:56;3.83;;;1.93;;
83840;SDS011;73868;52.172;10.668;2023-12-20T12:57:22;3.77;;;1.60;;
83840;SDS011;73868;52.172;10.668;2023-12-20T12:59:48;3.33;;;1.50;;
83840;SDS011;73868;52.172;10.668;2023-12-20T13:02:14;3.43;;;1.30;;
83840;SDS011;73868;52.172;10.668;2023-12-20T13:04:40;1.83;;;1.30;;
83840;SDS011;73868;52.172;10.668;2023-12-20T13:07:07;1.80;;;1.20;;
83840;SDS011;73868;52.172;10.668;2023-12-20T13:09:35;2.30;;;0.93;;
83840;SDS011;73868;52.172;10.668;2023-12-20T13:12:01;1.43;;;0.97;;
83840;SDS011;73868;52.172;10.668;2023-12-20T13:14:28;2.70;;;0.90;;
83840;SDS011;73868;52.172;10.668;2023-12-20T13:16:54;2.57;;;0.83;;
83840;SDS011;73868;52.172;10.668;2023-12-20T13:19:21;1.77;;;0.70;;
83840;SDS011;73868;52.172;10.668;2023-12-20T13:21:46;1.63;;;0.70;;
83840;SDS011;73868;52.172;10.668;2023-12-20T13:24:12;2.00;;;0.80;;
83840;SDS011;73868;52.172;10.668;2023-12-20T13:26:37;2.33;;;1.03;;
83840;SDS011;73868;52.172;10.668;2023-12-20T13:29:03;1.47;;;0.80;;
83840;SDS011;73868;52.172;10.668;2023-12-20T13:31:28;2.23;;;0.90;;
83840;SDS011;73868;52.172;10.668;2023-12-20T13:33:54;2.23;;;0.70;;
83840;SDS011;73868;52.172;10.668;2023-12-20T13:36:19;1.70;;;0.50;;
83840;SDS011;73868;52.172;10.668;2023-12-20T13:38:45;1.33;;;0.63;;
83840;SDS011;73868;52.172;10.668;2023-12-20T13:41:11;1.70;;;0.70;;
83840;SDS011;73868;52.172;10.668;2023-12-20T13:43:37;2.10;;;1.00;;
83840;SDS011;73868;52.172;10.668;2023-12-20T13:46:03;3.70;;;0.80;;
83840;SDS011;73868;52.172;10.668;2023-12-20T13:48:28;2.77;;;1.00;;
83840;SDS011;73868;52.172;10.668;2023-12-20T13:50:54;3.17;;;0.80;;
83840;SDS011;73868;52.172;10.668;2023-12-20T13:53:20;2.07;;;0.83;;
83840;SDS011;73868;52.172;10.668;2023-12-20T13:55:45;4.17;;;0.80;;
83840;SDS011;73868;52.172;10.668;2023-12-20T13:58:11;2.57;;;0.80;;
83840;SDS011;73868;52.172;10.668;2023-12-20T14:00:37;4.73;;;0.97;;
83840;SDS011;73868;52.172;10.668;2023-12-20T14:03:05;3.33;;;1.00;;
83840;SDS011;73868;52.172;10.668;2023-12-20T14:05:32;2.27;;;0.80;;
83840;SDS011;73868;52.172;10.668;2023-12-20T14:07:58;3.47;;;1.10;;
83840;SDS011;73868;52.172;10.668;2023-12-20T14:10:24;3.53;;;1.03;;
83840;SDS011;73868;52.172;10.668;2023-12-20T14:12:53;4.63;;;1.30;;
83840;SDS011;73868;52.172;10.668;2023-12-20T14:15:19;3.40;;;1.27;;
83840;SDS011;73868;52.172;10.668;2023-12-20T14:17:45;2.43;;;1.17;;
83840;SDS011;73868;52.172;10.668;2023-12-20T14:20:10;3.27;;;1.43;;
83840;SDS011;73868;52.172;10.668;2023-12-20T14:22:39;1.83;;;1.07;;
83840;SDS011;73868;52.172;10.668;2023-12-20T14:25:10;2.70;;;1.30;;
83840;SDS011;73868;52.172;10.668;2023-12-20T14:27:37;2.93;;;0.93;;
83840;SDS011;73868;52.172;10.668;2023-12-20T14:30:04;2.63;;;1.20;;
83840;SDS011;73868;52.172;10.668;2023-12-20T14:32:31;1.70;;;0.77;;
83840;SDS011;73868;52.172;10.668;2023-12-20T14:34:56;2.43;;;1.00;;